Time,TemperatureF,DewpointF,PressureIn,WindDirection,WindDirectionDegrees,WindSpeedMPH,WindSpeedGustMPH,Humidity,HourlyPrecipIn,Conditions,Clouds,dailyrainin,SoftwareType,DateUTC
2013-06-28 00:01:00,64.7,59.4,29.71,WNW,294,0.0,0.0,83,0.00,,CLR,0.00,VWS V14.01,2013-06-28 05:01:00,
2013-06-28 00:06:00,64.6,59.7,29.72,WNW,294,0.0,0.0,84,0.00,,CLR,0.00,VWS V14.01,2013-06-28 05:06:00,
2013-06-28 00:11:00,64.6,59.7,29.72,West,266,1.0,1.0,84,0.00,,CLR,0.00,VWS V14.01,2013-06-28 05:11:00,
2013-06-28 00:16:00,64.7,59.8,29.72,West,277,0.0,1.0,84,0.00,,CLR,0.00,VWS V14.01,2013-06-28 05:16:00,
2013-06-28 00:21:00,64.7,59.8,29.72,West,262,0.0,1.0,84,0.00,,CLR,0.00,VWS V14.01,2013-06-28 05:21:00,
2013-06-28 00:26:00,64.8,59.9,29.72,West,262,0.0,1.0,84,0.00,,CLR,0.00,VWS V14.01,2013-06-28 05:26:00,
2013-06-28 00:31:00,64.8,59.9,29.72,West,268,0.0,1.0,84,0.00,,CLR,0.00,VWS V14.01,2013-06-28 05:31:00,
2013-06-28 00:36:00,64.7,59.8,29.72,West,273,1.0,1.0,84,0.00,,CLR,0.00,VWS V14.01,2013-06-28 05:36:00,
2013-06-28 00:41:00,64.5,59.9,29.72,West,259,0.0,1.0,85,0.00,,CLR,0.00,VWS V14.01,2013-06-28 05:41:00,
2013-06-28 00:46:00,64.3,59.7,29.72,West,259,0.0,1.0,85,0.00,,CLR,0.00,VWS V14.01,2013-06-28 05:46:00,
2013-06-28 00:51:00,64.3,60.0,29.72,West,270,1.0,1.0,86,0.00,,CLR,0.00,VWS V14.01,2013-06-28 05:51:00,
2013-06-28 00:56:00,64.6,60.0,29.72,West,270,0.0,2.0,85,0.00,,CLR,0.00,VWS V14.01,2013-06-28 05:56:00,
2013-06-28 01:01:00,64.7,60.1,29.72,West,266,0.0,1.0,85,0.00,,CLR,0.00,VWS V14.01,2013-06-28 06:01:00,
2013-06-28 01:06:00,64.4,59.8,29.72,West,266,0.0,1.0,85,0.00,,CLR,0.00,VWS V14.01,2013-06-28 06:06:00,
2013-06-28 01:11:00,64.2,59.9,29.72,West,275,2.0,2.0,86,0.00,,CLR,0.00,VWS V14.01,2013-06-28 06:11:00,
2013-06-28 01:16:00,64.3,60.0,29.72,West,269,2.0,2.0,86,0.00,,CLR,0.00,VWS V14.01,2013-06-28 06:16:00,
2013-06-28 01:21:00,64.3,60.0,29.72,West,273,1.0,3.0,86,0.00,,CLR,0.00,VWS V14.01,2013-06-28 06:21:00,
2013-06-28 01:26:00,64.4,60.1,29.72,WSW,255,1.0,3.0,86,0.00,,CLR,0.00,VWS V14.01,2013-06-28 06:26:00,
2013-06-28 01:31:00,64.4,60.1,29.72,WSW,257,1.0,1.0,86,0.00,,CLR,0.00,VWS V14.01,2013-06-28 06:31:00,
2013-06-28 01:36:00,64.2,59.9,29.72,West,270,1.0,2.0,86,0.00,,CLR,0.00,VWS V14.01,2013-06-28 06:36:00,
2013-06-28 01:41:00,64.1,60.2,29.72,West,276,2.0,3.0,87,0.00,,CLR,0.00,VWS V14.01,2013-06-28 06:41:00,
2013-06-28 01:46:00,64.1,60.2,29.72,West,278,1.0,3.0,87,0.00,,CLR,0.00,VWS V14.01,2013-06-28 06:46:00,
2013-06-28 01:51:00,64.2,60.3,29.71,West,281,2.0,3.0,87,0.00,,CLR,0.00,VWS V14.01,2013-06-28 06:51:00,
2013-06-28 01:56:00,64.2,60.3,29.71,West,275,1.0,3.0,87,0.00,,CLR,0.00,VWS V14.01,2013-06-28 06:56:00,
2013-06-28 02:01:00,64.3,60.3,29.71,West,276,1.0,2.0,87,0.00,,CLR,0.00,VWS V14.01,2013-06-28 07:01:00,
2013-06-28 02:06:00,64.3,60.0,29.71,West,268,2.0,2.0,86,0.00,,CLR,0.00,VWS V14.01,2013-06-28 07:06:00,
2013-06-28 02:11:00,64.4,60.1,29.71,West,278,2.0,3.0,86,0.00,,CLR,0.00,VWS V14.01,2013-06-28 07:11:00,
2013-06-28 02:16:00,64.3,60.0,29.71,West,275,2.0,4.0,86,0.00,,CLR,0.00,VWS V14.01,2013-06-28 07:16:00,
2013-06-28 02:21:00,64.5,60.2,29.71,West,267,3.0,4.0,86,0.00,,CLR,0.00,VWS V14.01,2013-06-28 07:21:00,
2013-06-28 02:26:00,64.7,60.1,29.71,West,274,2.0,5.0,85,0.00,,CLR,0.00,VWS V14.01,2013-06-28 07:26:00,
2013-06-28 02:31:00,64.9,60.0,29.71,West,275,1.0,3.0,84,0.00,,CLR,0.00,VWS V14.01,2013-06-28 07:31:00,
2013-06-28 02:36:00,65.0,60.0,29.71,West,266,2.0,3.0,84,0.00,,CLR,0.00,VWS V14.01,2013-06-28 07:36:00,
2013-06-28 02:41:00,65.1,59.8,29.71,West,273,2.0,4.0,83,0.00,,CLR,0.00,VWS V14.01,2013-06-28 07:41:00,
2013-06-28 02:46:00,65.2,59.9,29.71,WNW,293,2.0,4.0,83,0.00,,CLR,0.00,VWS V14.01,2013-06-28 07:46:00,
2013-06-28 02:51:00,65.4,60.1,29.71,West,270,1.0,6.0,83,0.00,,CLR,0.00,VWS V14.01,2013-06-28 07:51:00,
2013-06-28 02:56:00,65.5,59.9,29.70,West,267,4.0,6.0,82,0.00,,CLR,0.00,VWS V14.01,2013-06-28 07:56:00,
2013-06-28 03:01:00,65.8,60.2,29.70,West,272,3.0,4.0,82,0.00,,CLR,0.00,VWS V14.01,2013-06-28 08:01:00,
2013-06-28 03:06:00,65.9,59.9,29.70,West,277,2.0,4.0,81,0.00,,CLR,0.00,VWS V14.01,2013-06-28 08:06:00,
2013-06-28 03:11:00,65.9,59.9,29.70,West,273,3.0,5.0,81,0.00,,CLR,0.00,VWS V14.01,2013-06-28 08:11:00,
2013-06-28 03:16:00,65.9,59.9,29.70,West,267,3.0,5.0,81,0.00,,CLR,0.00,VWS V14.01,2013-06-28 08:16:00,
2013-06-28 03:21:00,66.0,60.0,29.70,WNW,285,2.0,5.0,81,0.00,,CLR,0.00,VWS V14.01,2013-06-28 08:21:00,
2013-06-28 03:26:00,66.0,60.0,29.70,West,270,3.0,6.0,81,0.00,,CLR,0.00,VWS V14.01,2013-06-28 08:26:00,
2013-06-28 03:31:00,66.0,60.0,29.70,West,274,3.0,6.0,81,0.00,,SCT120,0.00,VWS V14.01,2013-06-28 08:31:00,
2013-06-28 03:36:00,66.0,60.3,29.69,West,273,2.0,6.0,82,0.00,,SCT120,0.00,VWS V14.01,2013-06-28 08:36:00,
2013-06-28 03:41:00,66.0,60.3,29.69,West,264,3.0,7.0,82,0.00,,SCT120,0.00,VWS V14.01,2013-06-28 08:41:00,
2013-06-28 03:46:00,66.0,60.0,29.69,WNW,285,4.0,8.0,81,0.00,,SCT120,0.00,VWS V14.01,2013-06-28 08:46:00,
2013-06-28 03:51:00,66.1,60.1,29.69,West,264,8.0,10.0,81,0.00,,CLR,0.00,VWS V14.01,2013-06-28 08:51:00,
2013-06-28 03:56:00,66.2,60.2,29.69,WNW,283,2.0,10.0,81,0.00,,SCT120,0.00,VWS V14.01,2013-06-28 08:56:00,
2013-06-28 04:01:00,66.2,60.2,29.69,WNW,287,4.0,7.0,81,0.00,,CLR,0.00,VWS V14.01,2013-06-28 09:01:00,
2013-06-28 04:06:00,66.1,60.1,29.69,West,280,3.0,7.0,81,0.00,,CLR,0.00,VWS V14.01,2013-06-28 09:06:00,
2013-06-28 04:11:00,66.0,60.0,29.69,WNW,293,2.0,7.0,81,0.00,,CLR,0.00,VWS V14.01,2013-06-28 09:11:00,
2013-06-28 04:16:00,66.0,60.0,29.69,West,270,1.0,7.0,81,0.00,,SCT120,0.00,VWS V14.01,2013-06-28 09:16:00,
2013-06-28 04:21:00,65.8,60.2,29.69,West,269,2.0,7.0,82,0.00,,SCT120,0.00,VWS V14.01,2013-06-28 09:21:00,
2013-06-28 04:26:00,65.8,60.2,29.69,WNW,288,2.0,7.0,82,0.00,,SCT120,0.00,VWS V14.01,2013-06-28 09:26:00,
2013-06-28 04:31:00,65.8,60.2,29.69,WNW,287,2.0,4.0,82,0.00,,SCT120,0.00,VWS V14.01,2013-06-28 09:31:00,
2013-06-28 04:36:00,65.9,60.3,29.69,WNW,288,2.0,4.0,82,0.00,,SCT120,0.00,VWS V14.01,2013-06-28 09:36:00,
2013-06-28 04:41:00,66.2,60.2,29.69,NW,308,3.0,6.0,81,0.00,,SCT120,0.00,VWS V14.01,2013-06-28 09:41:00,
2013-06-28 04:46:00,66.6,60.2,29.69,WNW,290,2.0,6.0,80,0.00,,SCT120,0.00,VWS V14.01,2013-06-28 09:46:00,
2013-06-28 04:51:00,66.9,60.2,29.69,West,266,4.0,8.0,79,0.00,,SCT120,0.00,VWS V14.01,2013-06-28 09:51:00,
2013-06-28 04:56:00,66.8,60.1,29.69,WNW,285,2.0,9.0,79,0.00,,SCT120,0.00,VWS V14.01,2013-06-28 09:56:00,
2013-06-28 05:01:00,66.9,60.2,29.69,West,277,3.0,5.0,79,0.00,,SCT120,0.00,VWS V14.01,2013-06-28 10:01:00,
2013-06-28 05:06:00,66.9,60.2,29.69,West,277,3.0,5.0,79,0.00,,SCT120,0.00,VWS V14.01,2013-06-28 10:06:00,
2013-06-28 05:11:00,66.9,60.2,29.69,NW,305,3.0,10.0,79,0.00,,SCT120,0.00,VWS V14.01,2013-06-28 10:11:00,
2013-06-28 05:16:00,66.9,60.2,29.69,WNW,290,2.0,10.0,79,0.00,,SCT120,0.00,VWS V14.01,2013-06-28 10:16:00,
2013-06-28 05:21:00,66.8,60.1,29.69,West,273,2.0,10.0,79,0.00,,SCT120,0.00,VWS V14.01,2013-06-28 10:21:00,
2013-06-28 05:26:00,66.8,60.1,29.69,WNW,295,4.0,10.0,79,0.00,,SCT120,0.00,VWS V14.01,2013-06-28 10:26:00,
2013-06-28 05:31:00,66.8,60.1,29.69,WNW,302,3.0,4.0,79,0.00,,SCT120,0.00,VWS V14.01,2013-06-28 10:31:00,
2013-06-28 05:36:00,66.7,60.0,29.68,West,281,3.0,4.0,79,0.00,,SCT120,0.00,VWS V14.01,2013-06-28 10:36:00,
2013-06-28 05:41:00,66.8,60.1,29.68,West,274,3.0,5.0,79,0.00,,SCT120,0.00,VWS V14.01,2013-06-28 10:41:00,
2013-06-28 05:46:00,66.8,60.1,29.68,West,273,4.0,8.0,79,0.00,,SCT120,0.00,VWS V14.01,2013-06-28 10:46:00,
2013-06-28 05:51:00,66.8,60.1,29.68,West,262,3.0,8.0,79,0.00,,SCT120,0.00,VWS V14.01,2013-06-28 10:51:00,
2013-06-28 05:56:00,66.7,60.0,29.69,WNW,295,3.0,8.0,79,0.00,,SCT120,0.00,VWS V14.01,2013-06-28 10:56:00,
2013-06-28 06:01:00,66.7,60.0,29.68,NW,312,3.0,8.0,79,0.00,,SCT120,0.00,VWS V14.01,2013-06-28 11:01:00,
2013-06-28 06:06:00,66.7,60.0,29.69,WNW,299,5.0,8.0,79,0.00,,SCT120,0.00,VWS V14.01,2013-06-28 11:06:00,
2013-06-28 06:11:00,67.0,59.9,29.69,WNW,285,3.0,8.0,78,0.00,,SCT120,0.00,VWS V14.01,2013-06-28 11:11:00,
2013-06-28 06:16:00,67.1,60.0,29.69,WSW,245,4.0,8.0,78,0.00,,SCT120,0.00,VWS V14.01,2013-06-28 11:16:00,
2013-06-28 06:21:00,67.1,60.0,29.68,WNW,293,4.0,8.0,78,0.00,,SCT120,0.00,VWS V14.01,2013-06-28 11:21:00,
2013-06-28 06:26:00,67.2,60.1,29.68,WSW,249,7.0,8.0,78,0.00,,SCT120,0.00,VWS V14.01,2013-06-28 11:26:00,
2013-06-28 06:31:00,67.2,60.1,29.68,WNW,302,7.0,7.0,78,0.00,,SCT120,0.00,VWS V14.01,2013-06-28 11:31:00,
2013-06-28 06:36:00,67.2,60.1,29.69,West,275,4.0,7.0,78,0.00,,SCT110,0.00,VWS V14.01,2013-06-28 11:36:00,
2013-06-28 06:41:00,67.1,60.0,29.69,West,280,2.0,9.0,78,0.00,,SCT110,0.00,VWS V14.01,2013-06-28 11:41:00,
2013-06-28 06:46:00,67.2,60.1,29.69,WNW,290,2.0,9.0,78,0.00,,SCT110,0.00,VWS V14.01,2013-06-28 11:46:00,
2013-06-28 06:51:00,67.1,60.0,29.69,WSW,250,5.0,9.0,78,0.00,,SCT100,0.00,VWS V14.01,2013-06-28 11:51:00,
2013-06-28 06:56:00,67.0,60.3,29.69,WSW,256,3.0,9.0,79,0.00,,SCT100,0.00,VWS V14.01,2013-06-28 11:56:00,
2013-06-28 07:01:00,66.9,60.2,29.69,West,273,3.0,5.0,79,0.00,,SCT100,0.00,VWS V14.01,2013-06-28 12:01:00,
2013-06-28 07:06:00,66.8,60.1,29.69,West,280,4.0,6.0,79,0.00,,SCT100,0.00,VWS V14.01,2013-06-28 12:06:00,
2013-06-28 07:11:00,66.8,60.1,29.69,NW,307,3.0,7.0,79,0.00,,SCT100,0.00,VWS V14.01,2013-06-28 12:11:00,
2013-06-28 07:16:00,66.8,60.1,29.69,WNW,285,3.0,7.0,79,0.00,,SCT100,0.00,VWS V14.01,2013-06-28 12:16:00,
2013-06-28 07:21:00,67.1,60.4,29.68,WSW,248,3.0,8.0,79,0.00,,SCT100,0.00,VWS V14.01,2013-06-28 12:21:00,
2013-06-28 07:26:00,67.1,60.4,29.69,WNW,293,4.0,8.0,79,0.00,,SCT100,0.00,VWS V14.01,2013-06-28 12:26:00,
2013-06-28 07:31:00,67.1,60.4,29.69,WNW,297,4.0,6.0,79,0.00,,SCT100,0.00,VWS V14.01,2013-06-28 12:31:00,
2013-06-28 07:36:00,67.2,60.5,29.68,WSW,245,6.0,8.0,79,0.00,,OVC046,0.00,VWS V14.01,2013-06-28 12:36:00,
2013-06-28 07:41:00,67.2,60.5,29.68,WNW,285,4.0,8.0,79,0.00,,OVC046,0.00,VWS V14.01,2013-06-28 12:41:00,
2013-06-28 07:46:00,67.5,60.8,29.68,WNW,290,6.0,8.0,79,0.00,,OVC046,0.00,VWS V14.01,2013-06-28 12:46:00,
2013-06-28 07:51:00,67.7,61.0,29.68,WNW,299,3.0,8.0,79,0.00,,OVC049,0.00,VWS V14.01,2013-06-28 12:51:00,
2013-06-28 07:56:00,67.7,60.6,29.68,SSW,207,3.0,8.0,78,0.00,,OVC049,0.00,VWS V14.01,2013-06-28 12:56:00,
2013-06-28 08:01:00,67.4,60.7,29.69,WNW,288,2.0,4.0,79,0.00,,OVC049,0.00,VWS V14.01,2013-06-28 13:01:00,
2013-06-28 08:06:00,67.3,60.6,29.68,North,360,8.0,8.0,79,0.00,,OVC049,0.00,VWS V14.01,2013-06-28 13:06:00,
2013-06-28 08:11:00,67.3,60.2,29.69,NW,310,2.0,9.0,78,0.00,,OVC049,0.00,VWS V14.01,2013-06-28 13:11:00,
2013-06-28 08:16:00,67.3,60.6,29.69,WNW,290,3.0,9.0,79,0.00,,OVC049,0.00,VWS V14.01,2013-06-28 13:16:00,
2013-06-28 08:21:00,67.4,60.3,29.69,WNW,287,3.0,9.0,78,0.00,,OVC049,0.00,VWS V14.01,2013-06-28 13:21:00,
2013-06-28 08:26:00,67.5,60.4,29.69,NW,308,3.0,9.0,78,0.00,,OVC049,0.00,VWS V14.01,2013-06-28 13:26:00,
2013-06-28 08:31:00,67.8,61.1,29.69,NW,316,2.0,8.0,79,0.00,,OVC049,0.00,VWS V14.01,2013-06-28 13:31:00,
2013-06-28 08:36:00,67.8,60.7,29.69,NW,305,2.0,9.0,78,0.00,,OVC065,0.00,VWS V14.01,2013-06-28 13:36:00,
2013-06-28 08:41:00,67.9,60.8,29.69,West,260,2.0,9.0,78,0.00,,OVC065,0.00,VWS V14.01,2013-06-28 13:41:00,
2013-06-28 08:46:00,68.0,60.9,29.68,WNW,300,4.0,9.0,78,0.00,,OVC065,0.00,VWS V14.01,2013-06-28 13:46:00,
2013-06-28 08:51:00,68.2,61.1,29.68,WNW,299,3.0,10.0,78,0.00,,OVC075,0.00,VWS V14.01,2013-06-28 13:51:00,
2013-06-28 08:56:00,68.5,61.4,29.68,NW,305,4.0,10.0,78,0.00,,OVC075,0.00,VWS V14.01,2013-06-28 13:56:00,
2013-06-28 09:01:00,68.9,61.4,29.68,North,349,5.0,8.0,77,0.00,,OVC075,0.00,VWS V14.01,2013-06-28 14:01:00,
2013-06-28 09:06:00,69.2,61.7,29.68,NNW,330,2.0,8.0,77,0.00,,OVC075,0.00,VWS V14.01,2013-06-28 14:06:00,
2013-06-28 09:11:00,69.4,61.9,29.69,NNW,332,2.0,8.0,77,0.00,,OVC075,0.00,VWS V14.01,2013-06-28 14:11:00,
2013-06-28 09:16:00,69.1,61.2,29.69,West,267,3.0,14.0,76,0.00,,OVC075,0.00,VWS V14.01,2013-06-28 14:16:00,
2013-06-28 09:21:00,68.7,61.2,29.68,NW,316,3.0,15.0,77,0.00,,OVC075,0.00,VWS V14.01,2013-06-28 14:21:00,
2013-06-28 09:26:00,68.5,61.4,29.69,NW,314,2.0,15.0,78,0.00,,OVC075,0.00,VWS V14.01,2013-06-28 14:26:00,
2013-06-28 09:31:00,68.5,61.7,29.69,WNW,291,4.0,5.0,79,0.00,,OVC075,0.00,VWS V14.01,2013-06-28 14:31:00,
2013-06-28 09:36:00,68.5,62.1,29.69,WNW,290,2.0,5.0,80,0.00,,OVC032,0.00,VWS V14.01,2013-06-28 14:36:00,
2013-06-28 09:41:00,68.5,61.4,29.69,WNW,294,3.0,7.0,78,0.00,,OVC032,0.00,VWS V14.01,2013-06-28 14:41:00,
2013-06-28 09:46:00,68.4,61.6,29.69,ESE,117,1.0,8.0,79,0.00,,OVC032,0.00,VWS V14.01,2013-06-28 14:46:00,
2013-06-28 09:51:00,68.5,61.7,29.69,NNE,23,3.0,8.0,79,0.00,,OVC028,0.00,VWS V14.01,2013-06-28 14:51:00,
2013-06-28 09:56:00,68.6,61.8,29.69,NW,321,1.0,8.0,79,0.00,,OVC028,0.00,VWS V14.01,2013-06-28 14:56:00,
2013-06-28 10:01:00,68.7,61.9,29.69,SW,221,2.0,8.0,79,0.00,,OVC028,0.00,VWS V14.01,2013-06-28 15:01:00,
2013-06-28 10:06:00,68.8,61.7,29.69,North,5,2.0,8.0,78,0.00,,OVC028,0.00,VWS V14.01,2013-06-28 15:06:00,
2013-06-28 10:11:00,68.9,62.1,29.69,WSW,253,2.0,8.0,79,0.00,,OVC028,0.00,VWS V14.01,2013-06-28 15:11:00,
2013-06-28 10:16:00,69.0,62.2,29.69,North,355,0.0,8.0,79,0.00,,OVC028,0.00,VWS V14.01,2013-06-28 15:16:00,
2013-06-28 10:21:00,69.0,62.2,29.70,NW,305,2.0,8.0,79,0.00,,OVC028,0.00,VWS V14.01,2013-06-28 15:21:00,
2013-06-28 10:26:00,68.9,62.5,29.69,West,281,2.0,8.0,80,0.00,,OVC028,0.00,VWS V14.01,2013-06-28 15:26:00,
2013-06-28 10:31:00,68.8,62.4,29.69,WSW,253,4.0,7.0,80,0.00,,OVC028,0.00,VWS V14.01,2013-06-28 15:31:00,
2013-06-28 10:36:00,68.7,62.3,29.70,West,267,3.0,7.0,80,0.00,,OVC023,0.00,VWS V14.01,2013-06-28 15:36:00,
2013-06-28 10:41:00,68.3,62.6,29.70,WNW,300,3.0,7.0,82,0.00,,OVC023,0.00,VWS V14.01,2013-06-28 15:41:00,
2013-06-28 10:46:00,67.5,62.8,29.70,NW,311,2.0,7.0,85,0.00,,OVC023,0.00,VWS V14.01,2013-06-28 15:46:00,
2013-06-28 10:51:00,67.2,63.2,29.70,West,277,1.0,7.0,87,0.00,,OVC029,0.00,VWS V14.01,2013-06-28 15:51:00,
2013-06-28 10:56:00,67.3,62.6,29.69,WNW,300,2.0,8.0,85,0.00,,OVC029,0.00,VWS V14.01,2013-06-28 15:56:00,
2013-06-28 11:01:00,67.8,62.5,29.69,NW,308,5.0,7.0,83,0.00,,OVC029,0.00,VWS V14.01,2013-06-28 16:01:00,
2013-06-28 11:06:00,68.4,62.7,29.70,WSW,238,4.0,8.0,82,0.00,,OVC029,0.00,VWS V14.01,2013-06-28 16:06:00,
2013-06-28 11:11:00,69.1,63.7,29.69,West,277,3.0,11.0,83,0.00,,OVC029,0.00,VWS V14.01,2013-06-28 16:11:00,
2013-06-28 11:16:00,69.9,63.5,29.69,NW,321,6.0,11.0,80,0.00,,OVC029,0.00,VWS V14.01,2013-06-28 16:16:00,
2013-06-28 11:21:00,70.5,63.7,29.69,West,269,5.0,11.0,79,0.00,,OVC029,0.00,VWS V14.01,2013-06-28 16:21:00,
2013-06-28 11:26:00,70.9,63.7,29.69,West,278,2.0,11.0,78,0.00,,OVC029,0.00,VWS V14.01,2013-06-28 16:26:00,
2013-06-28 11:31:00,71.4,64.2,29.69,WNW,302,4.0,6.0,78,0.00,,OVC029,0.00,VWS V14.01,2013-06-28 16:31:00,
2013-06-28 11:36:00,71.4,63.8,29.69,NW,308,4.0,9.0,77,0.00,,BKN030,0.00,VWS V14.01,2013-06-28 16:36:00,
2013-06-28 11:41:00,71.4,63.8,29.69,ENE,61,4.0,9.0,77,0.00,,BKN030,0.00,VWS V14.01,2013-06-28 16:41:00,
2013-06-28 11:46:00,71.6,63.6,29.69,NW,321,5.0,9.0,76,0.00,,BKN030,0.00,VWS V14.01,2013-06-28 16:46:00,
2013-06-28 11:51:00,71.6,62.9,29.69,NNW,329,4.0,11.0,74,0.00,,BKN035,0.00,VWS V14.01,2013-06-28 16:51:00,
2013-06-28 11:56:00,71.7,63.4,29.69,West,276,4.0,11.0,75,0.00,,BKN035,0.00,VWS V14.01,2013-06-28 16:56:00,
2013-06-28 12:01:00,71.9,63.5,29.70,WNW,297,7.0,8.0,75,0.00,,BKN035,0.00,VWS V14.01,2013-06-28 17:01:00,
2013-06-28 12:06:00,71.8,63.5,29.70,West,266,4.0,10.0,75,0.00,,BKN035,0.00,VWS V14.01,2013-06-28 17:06:00,
2013-06-28 12:11:00,72.3,64.7,29.70,ESE,114,2.0,10.0,77,0.00,,BKN035,0.00,VWS V14.01,2013-06-28 17:11:00,
2013-06-28 12:15:00,72.4,63.3,29.70,WNW,295,5.0,12.0,73,0.00,,BKN035,0.00,VWS V14.01,2013-06-28 17:15:00,
2013-06-28 12:20:00,72.6,64.2,29.70,West,271,1.0,12.0,75,0.00,,BKN035,0.00,VWS V14.01,2013-06-28 17:20:00,
2013-06-28 12:25:00,73.3,63.7,29.70,ESE,108,2.0,12.0,72,0.00,,BKN035,0.00,VWS V14.01,2013-06-28 17:25:00,
2013-06-28 12:30:00,73.4,63.8,29.70,NW,311,2.0,7.0,72,0.00,,BKN035,0.00,VWS V14.01,2013-06-28 17:30:00,
2013-06-28 12:35:00,73.8,63.4,29.70,NW,308,4.0,7.0,70,0.00,,OVC050,0.00,VWS V14.01,2013-06-28 17:35:00,
2013-06-28 12:41:00,73.4,63.4,29.70,West,266,5.0,7.0,71,0.00,,OVC050,0.00,VWS V14.01,2013-06-28 17:41:00,
2013-06-28 12:46:00,73.8,63.0,29.69,WSW,253,5.0,12.0,69,0.00,,OVC050,0.00,VWS V14.01,2013-06-28 17:46:00,
2013-06-28 12:51:00,73.9,62.7,29.69,SSW,193,2.0,12.0,68,0.00,,BKN060,0.00,VWS V14.01,2013-06-28 17:51:00,
2013-06-28 12:56:00,74.2,63.4,29.69,WNW,300,6.0,12.0,69,0.00,,BKN060,0.00,VWS V14.01,2013-06-28 17:56:00,
2013-06-28 13:01:00,74.2,63.4,29.69,NNW,336,3.0,8.0,69,0.00,,BKN060,0.00,VWS V14.01,2013-06-28 18:01:00,
2013-06-28 13:05:00,74.6,63.3,29.70,NNE,33,7.0,15.0,68,0.00,,BKN060,0.00,VWS V14.01,2013-06-28 18:05:00,
2013-06-28 13:10:00,75.1,63.8,29.69,NW,319,4.0,15.0,68,0.00,,BKN060,0.00,VWS V14.01,2013-06-28 18:10:00,
2013-06-28 13:15:00,75.0,63.7,29.69,WNW,284,5.0,15.0,68,0.00,,BKN060,0.00,VWS V14.01,2013-06-28 18:15:00,
2013-06-28 13:20:00,75.7,64.4,29.69,West,276,3.0,15.0,68,0.00,,BKN060,0.00,VWS V14.01,2013-06-28 18:20:00,
2013-06-28 13:25:00,76.3,63.7,29.69,SW,217,2.0,15.0,65,0.00,,BKN060,0.00,VWS V14.01,2013-06-28 18:25:00,
2013-06-28 13:30:00,76.4,64.2,29.69,West,270,3.0,7.0,66,0.00,,BKN060,0.00,VWS V14.01,2013-06-28 18:30:00,
2013-06-28 13:35:00,76.4,63.3,29.69,West,264,7.0,9.0,64,0.00,,SCT044,0.00,VWS V14.01,2013-06-28 18:35:00,
2013-06-28 13:40:00,76.3,63.2,29.68,NNW,328,2.0,9.0,64,0.00,,SCT044,0.00,VWS V14.01,2013-06-28 18:40:00,
2013-06-28 13:45:00,75.8,62.3,29.68,NW,308,1.0,9.0,63,0.00,,SCT044,0.00,VWS V14.01,2013-06-28 18:45:00,
2013-06-28 13:50:00,75.8,63.2,29.69,NW,305,2.0,9.0,65,0.00,,BKN070,0.00,VWS V14.01,2013-06-28 18:50:00,
2013-06-28 13:55:00,76.2,63.1,29.69,SW,232,5.0,9.0,64,0.00,,BKN070,0.00,VWS V14.01,2013-06-28 18:55:00,
2013-06-28 14:00:00,76.1,63.9,29.68,NW,310,3.0,10.0,66,0.00,,BKN070,0.00,VWS V14.01,2013-06-28 19:00:00,
2013-06-28 14:05:00,76.1,63.0,29.68,WNW,293,4.0,11.0,64,0.00,,BKN070,0.00,VWS V14.01,2013-06-28 19:05:00,
2013-06-28 14:10:00,75.5,63.4,29.69,WNW,301,5.0,11.0,66,0.00,,BKN070,0.00,VWS V14.01,2013-06-28 19:10:00,
2013-06-28 14:15:00,75.3,62.3,29.68,West,278,2.0,11.0,64,0.00,,BKN070,0.00,VWS V14.01,2013-06-28 19:15:00,
2013-06-28 14:20:00,75.5,62.9,29.68,NW,305,6.0,11.0,65,0.00,,BKN070,0.00,VWS V14.01,2013-06-28 19:20:00,
2013-06-28 14:25:00,76.1,63.9,29.68,NW,308,2.0,11.0,66,0.00,,BKN070,0.00,VWS V14.01,2013-06-28 19:25:00,
2013-06-28 14:30:00,76.4,63.3,29.68,NW,305,3.0,10.0,64,0.00,,BKN070,0.00,VWS V14.01,2013-06-28 19:30:00,
2013-06-28 14:35:00,76.4,63.8,29.68,NW,310,4.0,10.0,65,0.00,,BKN080,0.00,VWS V14.01,2013-06-28 19:35:00,
2013-06-28 14:40:00,76.6,63.5,29.68,NW,311,3.0,10.0,64,0.00,,BKN080,0.00,VWS V14.01,2013-06-28 19:40:00,
2013-06-28 14:46:00,76.0,62.5,29.68,NW,305,5.0,12.0,63,0.00,,BKN080,0.00,VWS V14.01,2013-06-28 19:46:00,
2013-06-28 14:51:00,75.3,63.2,29.68,WNW,297,5.0,12.0,66,0.00,,BKN080,0.00,VWS V14.01,2013-06-28 19:51:00,
2013-06-28 14:56:00,74.8,63.1,29.68,West,277,8.0,12.0,67,0.00,,BKN080,0.00,VWS V14.01,2013-06-28 19:56:00,
2013-06-28 15:01:00,75.1,63.8,29.68,WSW,257,2.0,5.0,68,0.00,,BKN080,0.00,VWS V14.01,2013-06-28 20:01:00,
2013-06-28 15:06:00,75.8,64.1,29.68,West,265,3.0,5.0,67,0.00,,BKN080,0.00,VWS V14.01,2013-06-28 20:06:00,
2013-06-28 15:11:00,75.8,64.1,29.68,West,270,2.0,7.0,67,0.00,,BKN080,0.00,VWS V14.01,2013-06-28 20:11:00,
2013-06-28 15:16:00,75.8,64.1,29.68,WNW,297,8.0,11.0,67,0.00,,BKN080,0.00,VWS V14.01,2013-06-28 20:16:00,
2013-06-28 15:21:00,75.7,62.7,29.69,WNW,300,5.0,11.0,64,0.00,,BKN080,0.00,VWS V14.01,2013-06-28 20:21:00,
2013-06-28 15:26:00,75.9,62.9,29.68,South,177,1.0,14.0,64,0.00,,BKN080,0.00,VWS V14.01,2013-06-28 20:26:00,
2013-06-28 15:31:00,76.6,62.6,29.69,NW,305,4.0,7.0,62,0.00,,BKN080,0.00,VWS V14.01,2013-06-28 20:31:00,
2013-06-28 15:36:00,77.1,63.1,29.68,NNW,328,3.0,9.0,62,0.00,,BKN080,0.00,VWS V14.01,2013-06-28 20:36:00,
2013-06-28 15:41:00,77.5,63.9,29.68,NNW,330,3.0,10.0,63,0.00,,BKN060,0.00,VWS V14.01,2013-06-28 20:41:00,
2013-06-28 15:46:00,77.8,63.3,29.68,WNW,302,5.0,10.0,61,0.00,,BKN060,0.00,VWS V14.01,2013-06-28 20:46:00,
2013-06-28 15:50:00,77.0,63.0,29.68,WSW,253,3.0,10.0,62,0.00,,BKN065,0.00,VWS V14.01,2013-06-28 20:50:00,
2013-06-28 15:55:00,76.0,63.4,29.70,ENE,60,6.0,11.0,65,0.00,,BKN065,0.00,VWS V14.01,2013-06-28 20:55:00,
2013-06-28 16:00:00,72.5,64.9,29.70,ESE,102,1.0,11.0,77,0.00,,BKN065,0.00,VWS V14.01,2013-06-28 21:00:00,
2013-06-28 16:05:00,70.8,65.4,29.70,SE,125,2.0,11.0,83,0.00,,BKN065,0.00,VWS V14.01,2013-06-28 21:05:00,
2013-06-28 16:10:00,69.8,64.8,29.70,East,86,3.0,11.0,84,0.00,,BKN065,0.00,VWS V14.01,2013-06-28 21:10:00,
2013-06-28 16:15:00,69.3,64.9,29.71,NW,314,0.0,11.0,86,0.00,,BKN065,0.00,VWS V14.01,2013-06-28 21:15:00,
2013-06-28 16:20:00,69.1,64.7,29.70,SE,142,1.0,11.0,86,0.00,,BKN065,0.00,VWS V14.01,2013-06-28 21:20:00,
2013-06-28 16:25:00,69.1,64.4,29.70,WNW,297,1.0,11.0,85,0.00,,BKN065,0.00,VWS V14.01,2013-06-28 21:25:00,
2013-06-28 16:30:00,69.4,64.0,29.70,NW,325,2.0,5.0,83,0.00,,BKN065,0.00,VWS V14.01,2013-06-28 21:30:00,
2013-06-28 16:35:00,69.9,64.2,29.70,WSW,253,1.0,7.0,82,0.00,,OVC065,0.00,VWS V14.01,2013-06-28 21:35:00,
2013-06-28 16:40:00,70.7,64.2,29.70,NW,308,0.0,7.0,80,0.00,,OVC065,0.00,VWS V14.01,2013-06-28 21:40:00,
2013-06-28 16:45:00,71.4,64.9,29.69,ESE,123,2.0,7.0,80,0.00,,OVC065,0.00,VWS V14.01,2013-06-28 21:45:00,
2013-06-28 16:50:00,72.4,64.8,29.69,NE,46,3.0,7.0,77,0.00,,OVC090,0.00,VWS V14.01,2013-06-28 21:50:00,
2013-06-28 16:55:00,73.8,65.4,29.69,West,269,1.0,8.0,75,0.00,,OVC090,0.00,VWS V14.01,2013-06-28 21:55:00,
2013-06-28 17:00:00,74.9,65.7,29.69,NE,39,7.0,7.0,73,0.00,,OVC090,0.00,VWS V14.01,2013-06-28 22:00:00,
2013-06-28 17:05:00,74.4,65.2,29.69,North,11,6.0,7.0,73,0.00,,OVC090,0.00,VWS V14.01,2013-06-28 22:05:00,
2013-06-28 17:10:00,73.0,64.2,29.70,WNW,294,1.0,9.0,74,0.00,,OVC090,0.00,VWS V14.01,2013-06-28 22:10:00,
2013-06-28 17:15:00,71.2,65.1,29.71,NNW,344,5.0,15.0,81,0.05,,OVC090,0.05,VWS V14.01,2013-06-28 22:15:00,
2013-06-28 17:20:00,68.5,63.8,29.71,West,271,2.0,15.0,85,0.12,,OVC090,0.12,VWS V14.01,2013-06-28 22:20:00,
2013-06-28 17:25:00,67.3,64.0,29.70,WSW,248,1.0,15.0,89,0.14,,OVC090,0.14,VWS V14.01,2013-06-28 22:25:00,
2013-06-28 17:30:00,67.0,64.3,29.70,WSW,251,0.0,3.0,91,0.14,,OVC090,0.14,VWS V14.01,2013-06-28 22:30:00,
2013-06-28 17:35:00,67.1,64.7,29.70,NW,325,1.0,5.0,92,0.14,,OVC095,0.14,VWS V14.01,2013-06-28 22:35:00,
2013-06-28 17:40:00,67.5,65.4,29.69,NW,308,0.0,5.0,93,0.14,,OVC095,0.14,VWS V14.01,2013-06-28 22:40:00,
2013-06-28 17:45:00,68.6,66.5,29.69,ENE,61,2.0,5.0,93,0.14,,OVC095,0.14,VWS V14.01,2013-06-28 22:45:00,
2013-06-28 17:50:00,69.6,67.2,29.69,NNE,16,4.0,5.0,92,0.14,,OVC110,0.14,VWS V14.01,2013-06-28 22:50:00,
2013-06-28 17:55:00,70.4,67.3,29.69,WNW,285,3.0,5.0,90,0.14,,OVC110,0.14,VWS V14.01,2013-06-28 22:55:00,
2013-06-28 18:00:00,71.0,67.6,29.69,NNW,345,2.0,4.0,89,0.14,,OVC110,0.14,VWS V14.01,2013-06-28 23:00:00,
2013-06-28 18:05:00,71.8,68.1,29.69,NW,314,3.0,4.0,88,0.14,,OVC110,0.14,VWS V14.01,2013-06-28 23:05:00,
2013-06-28 18:10:00,72.7,68.9,29.69,NNW,341,1.0,4.0,88,0.14,,OVC110,0.14,VWS V14.01,2013-06-28 23:10:00,
2013-06-28 18:15:00,73.2,68.8,29.69,WNW,285,0.0,4.0,86,0.14,,OVC110,0.14,VWS V14.01,2013-06-28 23:15:00,
2013-06-28 18:16:00,73.2,68.8,29.69,West,276,1.0,4.0,86,0.14,,OVC110,0.14,VWS V14.01,2013-06-28 23:16:00,
2013-06-28 18:21:00,73.7,68.9,29.69,NNW,333,0.0,4.0,85,0.14,,OVC110,0.14,VWS V14.01,2013-06-28 23:21:00,
2013-06-28 18:26:00,73.3,67.8,29.68,WNW,293,0.0,5.0,83,0.14,,OVC110,0.14,VWS V14.01,2013-06-28 23:26:00,
2013-06-28 18:31:00,72.6,67.2,29.69,West,262,0.0,2.0,83,0.00,,OVC110,0.14,VWS V14.01,2013-06-28 23:31:00,
2013-06-28 18:36:00,72.0,67.2,29.69,WNW,286,0.0,3.0,85,0.00,,BKN110,0.14,VWS V14.01,2013-06-28 23:36:00,
2013-06-28 18:41:00,71.8,67.4,29.69,WNW,293,0.0,3.0,86,0.00,,BKN110,0.14,VWS V14.01,2013-06-28 23:41:00,
2013-06-28 18:46:00,71.2,66.5,29.70,WNW,285,1.0,5.0,85,0.00,,BKN110,0.14,VWS V14.01,2013-06-28 23:46:00,
2013-06-28 18:51:00,70.2,65.8,29.69,NNW,343,2.0,5.0,86,0.00,,BKN110,0.14,VWS V14.01,2013-06-28 23:51:00,
2013-06-28 18:56:00,69.5,65.5,29.70,WNW,302,4.0,5.0,87,0.00,,BKN110,0.14,VWS V14.01,2013-06-28 23:56:00,
2013-06-28 19:01:00,69.2,65.5,29.70,WNW,297,0.0,3.0,88,0.00,,BKN110,0.14,VWS V14.01,2013-06-29 00:01:00,
2013-06-28 19:06:00,69.3,65.9,29.70,WNW,295,2.0,4.0,89,0.00,,SCT050,0.14,VWS V14.01,2013-06-29 00:06:00,
2013-06-28 19:11:00,69.8,66.1,29.70,WNW,301,2.0,7.0,88,0.00,,SCT050,0.14,VWS V14.01,2013-06-29 00:11:00,
2013-06-28 19:16:00,70.4,66.0,29.70,WNW,282,1.0,7.0,86,0.00,,SCT050,0.14,VWS V14.01,2013-06-29 00:16:00,
2013-06-28 19:21:00,70.9,66.2,29.70,NNW,330,3.0,7.0,85,0.00,,SCT050,0.14,VWS V14.01,2013-06-29 00:21:00,
2013-06-28 19:26:00,71.1,66.4,29.71,ESE,123,0.0,7.0,85,0.00,,SCT050,0.14,VWS V14.01,2013-06-29 00:26:00,
2013-06-28 19:31:00,70.7,66.0,29.71,NNW,330,4.0,4.0,85,0.00,,SCT050,0.14,VWS V14.01,2013-06-29 00:31:00,
2013-06-28 19:36:00,70.3,65.9,29.71,East,91,0.0,4.0,86,0.00,,-RA,0.14,VWS V14.01,2013-06-29 00:36:00,
2013-06-28 19:41:00,69.9,65.2,29.71,NNW,335,2.0,4.0,85,0.00,,-RA,0.14,VWS V14.01,2013-06-29 00:41:00,
2013-06-28 19:46:00,69.1,64.4,29.71,SE,143,1.0,7.0,85,0.00,,-RA,0.14,VWS V14.01,2013-06-29 00:46:00,
2013-06-28 19:51:00,68.5,63.8,29.72,NE,49,0.0,7.0,85,0.00,,-RA,0.14,VWS V14.01,2013-06-29 00:51:00,
2013-06-28 19:56:00,68.3,64.0,29.71,East,79,0.0,7.0,86,0.00,,-RA,0.14,VWS V14.01,2013-06-29 00:56:00,
2013-06-28 20:01:00,67.9,63.9,29.72,SE,131,0.0,6.0,87,0.00,,-RA,0.14,VWS V14.01,2013-06-29 01:01:00,
2013-06-28 20:06:00,67.9,64.2,29.72,WSW,253,1.0,6.0,88,0.00,,-RA,0.14,VWS V14.01,2013-06-29 01:06:00,
2013-06-28 20:11:00,68.0,64.3,29.72,NW,307,1.0,6.0,88,0.00,,-RA,0.14,VWS V14.01,2013-06-29 01:11:00,
2013-06-28 20:16:00,68.0,64.3,29.72,West,262,0.0,6.0,88,0.00,,-RA,0.14,VWS V14.01,2013-06-29 01:16:00,
2013-06-28 20:21:00,68.1,64.4,29.72,West,281,0.0,6.0,88,0.00,,-RA,0.14,VWS V14.01,2013-06-29 01:21:00,
2013-06-28 20:26:00,68.1,64.4,29.72,West,273,1.0,6.0,88,0.00,,-RA,0.14,VWS V14.01,2013-06-29 01:26:00,
2013-06-28 20:31:00,68.1,64.4,29.72,NNW,335,0.0,3.0,88,0.00,,-RA,0.14,VWS V14.01,2013-06-29 01:31:00,
2013-06-28 20:36:00,67.9,63.9,29.72,ENE,74,0.0,4.0,87,0.00,,OVC100,0.14,VWS V14.01,2013-06-29 01:36:00,
2013-06-28 20:41:00,67.8,64.1,29.71,NW,321,1.0,4.0,88,0.00,,OVC100,0.14,VWS V14.01,2013-06-29 01:41:00,
2013-06-28 20:46:00,67.7,64.0,29.72,WSW,246,0.0,4.0,88,0.00,,OVC100,0.14,VWS V14.01,2013-06-29 01:46:00,
2013-06-28 20:51:00,67.6,63.9,29.72,East,86,0.0,4.0,88,0.00,,OVC110,0.14,VWS V14.01,2013-06-29 01:51:00,
2013-06-28 20:56:00,67.4,64.1,29.72,East,87,0.0,4.0,89,0.00,,OVC110,0.14,VWS V14.01,2013-06-29 01:56:00,
2013-06-28 21:01:00,67.3,64.0,29.72,SSW,212,0.0,3.0,89,0.00,,OVC110,0.14,VWS V14.01,2013-06-29 02:01:00,
2013-06-28 21:06:00,67.1,64.1,29.73,WSW,249,0.0,3.0,90,0.00,,OVC110,0.14,VWS V14.01,2013-06-29 02:06:00,
2013-06-28 21:11:00,66.9,63.9,29.73,WSW,253,1.0,4.0,90,0.00,,OVC110,0.14,VWS V14.01,2013-06-29 02:11:00,
2013-06-28 21:16:00,66.7,63.7,29.73,West,266,1.0,5.0,90,0.00,,OVC110,0.14,VWS V14.01,2013-06-29 02:16:00,
2013-06-28 21:20:00,66.6,63.6,29.73,NW,325,1.0,5.0,90,0.00,,OVC110,0.14,VWS V14.01,2013-06-29 02:20:00,
2013-06-28 21:25:00,66.5,63.8,29.73,NW,308,2.0,5.0,91,0.00,,OVC110,0.14,VWS V14.01,2013-06-29 02:25:00,
2013-06-28 21:30:00,66.4,63.7,29.73,NE,36,0.0,2.0,91,0.00,,OVC110,0.14,VWS V14.01,2013-06-29 02:30:00,
2013-06-28 21:35:00,66.3,63.6,29.73,NNE,33,2.0,3.0,91,0.00,,-RA,0.14,VWS V14.01,2013-06-29 02:35:00,
2013-06-28 21:40:00,66.3,63.9,29.74,NNE,20,2.0,3.0,92,0.01,,-RA,0.15,VWS V14.01,2013-06-29 02:40:00,
2013-06-28 21:45:00,66.2,63.8,29.74,WNW,302,1.0,4.0,92,0.01,,-RA,0.15,VWS V14.01,2013-06-29 02:45:00,
2013-06-28 21:50:00,66.0,63.9,29.74,West,269,1.0,4.0,93,0.02,,SCT110,0.16,VWS V14.01,2013-06-29 02:50:00,
2013-06-28 21:55:00,65.9,63.8,29.74,NE,41,0.0,4.0,93,0.02,,SCT110,0.16,VWS V14.01,2013-06-29 02:55:00,
2013-06-28 22:00:00,65.8,63.7,29.74,West,267,0.0,1.0,93,0.02,,SCT110,0.16,VWS V14.01,2013-06-29 03:00:00,
2013-06-28 22:05:00,65.6,63.5,29.74,WNW,302,1.0,3.0,93,0.02,,SCT110,0.16,VWS V14.01,2013-06-29 03:05:00,
2013-06-28 22:10:00,65.5,63.7,29.74,East,81,1.0,3.0,94,0.02,,SCT110,0.16,VWS V14.01,2013-06-29 03:10:00,
2013-06-28 22:15:00,65.4,63.6,29.74,WNW,302,0.0,5.0,94,0.02,,SCT110,0.16,VWS V14.01,2013-06-29 03:15:00,
2013-06-28 22:20:00,65.3,63.5,29.74,SE,131,0.0,5.0,94,0.02,,SCT110,0.16,VWS V14.01,2013-06-29 03:20:00,
2013-06-28 22:25:00,65.2,63.4,29.74,NNE,22,1.0,5.0,94,0.02,,SCT110,0.16,VWS V14.01,2013-06-29 03:25:00,
2013-06-28 22:30:00,65.2,63.4,29.74,West,262,0.0,2.0,94,0.02,,SCT110,0.16,VWS V14.01,2013-06-29 03:30:00,
2013-06-28 22:35:00,65.1,63.3,29.74,East,101,0.0,3.0,94,0.03,,SCT110,0.17,VWS V14.01,2013-06-29 03:35:00,
2013-06-28 22:40:00,65.0,63.2,29.74,NW,324,2.0,3.0,94,0.03,,SCT110,0.17,VWS V14.01,2013-06-29 03:40:00,
2013-06-28 22:45:00,64.9,63.1,29.74,NNW,332,0.0,3.0,94,0.03,,SCT110,0.17,VWS V14.01,2013-06-29 03:45:00,
2013-06-28 22:50:00,64.8,63.3,29.74,SE,128,0.0,3.0,95,0.03,,OVC110,0.17,VWS V14.01,2013-06-29 03:50:00,
2013-06-28 22:55:00,64.8,63.3,29.74,NW,316,0.0,4.0,95,0.04,,OVC110,0.18,VWS V14.01,2013-06-29 03:55:00,
2013-06-28 23:00:00,64.7,63.2,29.73,NW,326,1.0,2.0,95,0.02,,OVC110,0.18,VWS V14.01,2013-06-29 04:00:00,
2013-06-28 23:01:00,64.7,63.2,29.73,NW,326,0.0,2.0,95,0.02,,OVC110,0.18,VWS V14.01,2013-06-29 04:01:00,
2013-06-28 23:06:00,64.6,63.1,29.73,NW,311,0.0,2.0,95,0.02,,OVC110,0.18,VWS V14.01,2013-06-29 04:06:00,
2013-06-28 23:11:00,64.6,63.1,29.73,North,5,0.0,3.0,95,0.03,,OVC110,0.19,VWS V14.01,2013-06-29 04:11:00,
2013-06-28 23:16:00,64.6,63.1,29.73,ENE,72,1.0,3.0,95,0.03,,OVC110,0.19,VWS V14.01,2013-06-29 04:16:00,
2013-06-28 23:21:00,64.5,63.3,29.72,ENE,70,0.0,3.0,96,0.03,,OVC110,0.19,VWS V14.01,2013-06-29 04:21:00,
2013-06-28 23:26:00,64.5,63.3,29.73,East,99,0.0,3.0,96,0.03,,OVC110,0.19,VWS V14.01,2013-06-29 04:26:00,
2013-06-28 23:31:00,64.5,63.3,29.73,NNE,32,1.0,2.0,96,0.04,,OVC110,0.20,VWS V14.01,2013-06-29 04:31:00,
2013-06-28 23:36:00,64.4,63.2,29.73,NW,325,0.0,2.0,96,0.04,,-RA,0.20,VWS V14.01,2013-06-29 04:36:00,
2013-06-28 23:41:00,64.4,63.2,29.73,WNW,301,0.0,3.0,96,0.05,,-RA,0.21,VWS V14.01,2013-06-29 04:41:00,
2013-06-28 23:46:00,64.3,63.1,29.73,West,281,0.0,3.0,96,0.06,,-RA,0.22,VWS V14.01,2013-06-29 04:46:00,
2013-06-28 23:51:00,64.3,63.1,29.72,NNW,342,0.0,3.0,96,0.07,,-RA,0.23,VWS V14.01,2013-06-29 04:51:00,
2013-06-28 23:56:00,64.3,63.1,29.72,West,263,0.0,3.0,96,0.08,,-RA,0.24,VWS V14.01,2013-06-29 04:56:00,